San Antonio, Texas
Current Conditions -  °F | °C
As of 5:58 AM on Monday 26 Jan 2015 (Local Time) from KSKF Reporting Station
Clear Clear  
Wind Chill:   Ceiling: Unl
Heat Index:   Visibility: 10mi
Dew Point:   Wind: 2mph
Humidity: 69%   Direction: 330°NNW
Pressure: 30.22"   Gusts: NA
Location:  29.42°N, 98.49°W
Report Text: KSKF 261158Z AUTO 33002KT 10SM CLR 06/01 A3022 RMK AO2 SLP234 T00590006 10090 20036 50001 $
Loading
Personal Weather Stations






























Interactive Weather Map New forecast layout! Learn more

10-Day Weather Forecast

Advertisements
Track Severe Weather on mobile